Benham, OR

3:56 PM PDT on September 21, 2014 (GMT -0700)
Roseburg Regional | Change Station
CLOSE
Current Station
Airport
Location: Roseburg,
Elevation: 525 ft
Nearby Weather Stations

Elev 525 ft 43.24 °N, 123.36 °W | Updated 1 hour ago

Mostly Cloudy
Mostly Cloudy
89 °F
Feels Like 87 °F
N
5
Wind Variable Wind from Variable

Today
High -- | Low -- °F
--% Chance of Precip.
Yesterday
High -- | Low -- °F
Precip. -- in
7:02 AM 7:15 PM
Waning Crescent, 5% visible
Pressure 29.84 in
Visibility 10.0 miles
Clouds Clear
Heat Index 87 °F
Dew Point 55 °F
Humidity 31%
Rainfall 0.00 in
Snow Depth 0 in , 0 in , 0 in
UV 5 out of 12
Pollen 2.00 out of 12
Air Quality Not available.
Flu Activity Not available.
METAR KRBG 212153Z AUTO VRB04KT 10SM CLR 32/13 A2985 RMK AO2 SLP104 T03170128

More Conditions Fewer Conditions

Pressure 29.84 in
Visibility 10.0 miles
Clouds Clear
Heat Index 87 °F
Dew Point 55 °F
Humidity 31%
Rainfall 0.00 in
Snow Depth 0 in , 0 in , 0 in
UV 5 out of 12
Pollen 2.00 out of 12
Air Quality Not available.
Flu Activity Not available.
METAR KRBG 212153Z AUTO VRB04KT 10SM CLR 32/13 A2985 RMK AO2 SLP104 T03170128

More Conditions Fewer Conditions

10-Day Weather Forecast

Almanac

Astronomy

Sep. 21, 2014 Rise Set
Actual Time 7:02 AM PDT 7:15 PM PDT
Civil Twilight 6:34 AM PDT 7:43 PM PDT
Nautical Twilight 6:01 AM PDT 8:17 PM PDT
Astronomical Twilight 5:26 AM PDT 8:51 PM PDT
Moon 4:38 AM PDT 5:57 PM PDT
Length of Visible Light 13h 09m
Length of Day
12h 12m
Tomorrow will be 2m 54s shorter.
Waning Crescent, 5% of the Moon is Illuminated
Today
Waning Crescent
Sep 24
New
Oct 1
First Quarter
Oct 8
Full
Oct 15
Last Quarter

Today's Extremes

State Highs State Lows

Community

WunderPhotos

Upload Photos

1,755,280 photos uploaded!

Nearby

Snow Depth

Station Depth Elevation
Greenpoint 0 in 3200 ft
Arbuckle Mountain 0 in 5400 ft
Daly Lake 0 in 3600 ft
Sevenmile Marsh 0 in 6200 ft
Seine Creek 0 in 2000 ft

Earthquake Activity

City Distance Mag. Time & Date
No recent earthquake activity has been reported nearby.
Minimum magnitude displayed is 2.5.

Coastal Water Temperatures

Place Temperature
Port Orford, OR 55.9 °F
Charleston, OR 55.0 °F
South Beach, OR 54.0 °F

Nearby Weather Stations